KGGG/GGG METAR and TAF weather

Enter ICAO airport designator
Station Type Date Time Source
KGGG METAR 2019/10/15 03:43 UTC NOAA

KGGG 150343Z AUTO 14006KT 10SM SCT007 OVC120 20/20 A2999 RMK AO2 T02000200


Station Type Date Time Source
KGGG Decoded METAR 2019/10/15 03:43 UTC NOAA

LONGVIEW GREGG COUNTY AIRPORT , TX, United States (KGGG) 32-23N 094-43W 107M
Oct 14, 2019 - 11:43 PM EDT / 2019.10.15 0343 UTC
Wind: from the SE (140 degrees) at 7 MPH (6 KT):0
Visibility: 10 mile(s):0
Sky conditions: overcast
Temperature: 68.0 F (20.0 C)
Dew Point: 68.0 F (20.0 C)
Relative Humidity: 100%
Pressure (altimeter): 29.99 in. Hg (1015 hPa)
ob: KGGG 150343Z AUTO 14006KT 10SM SCT007 OVC120 20/20 A2999 RMK AO2 T02000200
cycle: 3

Station Type Date Time Source
KGGG TAF 2019/10/14 22:33 UTC NOAA

TAF
AMD KGGG 142130Z 1422/1518 03003KT 1SM -RA BR VCSH BKN005 OVC040
TEMPO 1422/1424 4SM BR SCT005 BKN010
FM150000 12005KT 6SM -RA BR OVC010
FM150600 15008KT 6SM -RA BR VCTS OVC010CB
FM150900 17005KT 6SM -TSRA BR OVC010CB
FM151500 21007KT 4SM -SHRA BR OVC007

Example: see airport list